sensor_id;sensor_type;location;lat;lon;timestamp;P1;durP1;ratioP1;P2;durP2;ratioP2
669;SDS011;317;48.758;9.302;2022-11-14T00:00:36;17.97;;;14.90;;
669;SDS011;317;48.758;9.302;2022-11-14T00:03:03;17.73;;;15.50;;
669;SDS011;317;48.758;9.302;2022-11-14T00:05:31;19.57;;;17.47;;
669;SDS011;317;48.758;9.302;2022-11-14T00:07:58;18.57;;;16.67;;
669;SDS011;317;48.758;9.302;2022-11-14T00:10:25;17.80;;;15.90;;
669;SDS011;317;48.758;9.302;2022-11-14T00:12:52;17.13;;;14.43;;
669;SDS011;317;48.758;9.302;2022-11-14T00:15:18;18.33;;;16.43;;
669;SDS011;317;48.758;9.302;2022-11-14T00:17:46;18.10;;;16.20;;
669;SDS011;317;48.758;9.302;2022-11-14T00:20:13;19.27;;;16.40;;
669;SDS011;317;48.758;9.302;2022-11-14T00:22:40;19.50;;;17.50;;
669;SDS011;317;48.758;9.302;2022-11-14T00:25:08;18.30;;;16.50;;
669;SDS011;317;48.758;9.302;2022-11-14T00:27:35;18.43;;;16.53;;
669;SDS011;317;48.758;9.302;2022-11-14T00:30:02;17.30;;;15.47;;
669;SDS011;317;48.758;9.302;2022-11-14T00:32:30;18.70;;;16.47;;
669;SDS011;317;48.758;9.302;2022-11-14T00:34:58;19.30;;;17.00;;
669;SDS011;317;48.758;9.302;2022-11-14T00:37:25;20.73;;;18.53;;
669;SDS011;317;48.758;9.302;2022-11-14T00:39:52;20.30;;;16.27;;
669;SDS011;317;48.758;9.302;2022-11-14T00:42:19;19.20;;;17.10;;
669;SDS011;317;48.758;9.302;2022-11-14T00:44:45;21.10;;;17.50;;
669;SDS011;317;48.758;9.302;2022-11-14T00:47:13;24.17;;;19.70;;
669;SDS011;317;48.758;9.302;2022-11-14T00:49:40;20.47;;;18.27;;
669;SDS011;317;48.758;9.302;2022-11-14T00:52:09;21.93;;;19.83;;
669;SDS011;317;48.758;9.302;2022-11-14T00:54:35;21.20;;;17.93;;
669;SDS011;317;48.758;9.302;2022-11-14T00:57:02;26.17;;;20.70;;
669;SDS011;317;48.758;9.302;2022-11-14T00:59:29;21.93;;;18.97;;
669;SDS011;317;48.758;9.302;2022-11-14T01:01:56;19.10;;;17.10;;
669;SDS011;317;48.758;9.302;2022-11-14T01:04:23;21.43;;;18.47;;
669;SDS011;317;48.758;9.302;2022-11-14T01:06:50;21.33;;;19.10;;
669;SDS011;317;48.758;9.302;2022-11-14T01:09:18;19.40;;;17.40;;
669;SDS011;317;48.758;9.302;2022-11-14T01:11:45;19.03;;;16.83;;
669;SDS011;317;48.758;9.302;2022-11-14T01:14:11;19.53;;;17.53;;
669;SDS011;317;48.758;9.302;2022-11-14T01:16:38;21.00;;;18.33;;
669;SDS011;317;48.758;9.302;2022-11-14T01:19:05;19.77;;;17.33;;
669;SDS011;317;48.758;9.302;2022-11-14T01:21:32;18.97;;;16.97;;
669;SDS011;317;48.758;9.302;2022-11-14T01:23:59;21.40;;;17.37;;
669;SDS011;317;48.758;9.302;2022-11-14T01:26:27;18.70;;;16.70;;
669;SDS011;317;48.758;9.302;2022-11-14T01:28:54;17.73;;;15.83;;
669;SDS011;317;48.758;9.302;2022-11-14T01:31:21;16.00;;;14.23;;
669;SDS011;317;48.758;9.302;2022-11-14T01:33:49;17.43;;;15.07;;
669;SDS011;317;48.758;9.302;2022-11-14T01:36:18;19.23;;;16.23;;
669;SDS011;317;48.758;9.302;2022-11-14T01:38:50;18.23;;;16.27;;
669;SDS011;317;48.758;9.302;2022-11-14T01:41:18;19.70;;;16.27;;
669;SDS011;317;48.758;9.302;2022-11-14T01:43:46;18.20;;;15.57;;
669;SDS011;317;48.758;9.302;2022-11-14T01:46:14;18.23;;;15.80;;
669;SDS011;317;48.758;9.302;2022-11-14T01:48:46;20.20;;;17.20;;
669;SDS011;317;48.758;9.302;2022-11-14T01:51:19;17.57;;;15.33;;
669;SDS011;317;48.758;9.302;2022-11-14T01:53:52;18.63;;;15.77;;
669;SDS011;317;48.758;9.302;2022-11-14T01:56:21;16.30;;;14.67;;
669;SDS011;317;48.758;9.302;2022-11-14T01:58:55;17.10;;;15.23;;
669;SDS011;317;48.758;9.302;2022-11-14T02:01:26;16.70;;;15.03;;
669;SDS011;317;48.758;9.302;2022-11-14T02:03:55;17.80;;;15.90;;
669;SDS011;317;48.758;9.302;2022-11-14T02:06:26;16.60;;;14.83;;
669;SDS011;317;48.758;9.302;2022-11-14T02:08:56;16.10;;;14.50;;
669;SDS011;317;48.758;9.302;2022-11-14T02:11:27;18.03;;;16.27;;
669;SDS011;317;48.758;9.302;2022-11-14T02:13:56;18.90;;;16.97;;
669;SDS011;317;48.758;9.302;2022-11-14T02:16:24;16.70;;;14.90;;
669;SDS011;317;48.758;9.302;2022-11-14T02:18:51;19.33;;;16.80;;
669;SDS011;317;48.758;9.302;2022-11-14T02:21:19;19.57;;;16.87;;
669;SDS011;317;48.758;9.302;2022-11-14T02:23:46;20.27;;;17.80;;
669;SDS011;317;48.758;9.302;2022-11-14T02:26:15;21.30;;;18.13;;
669;SDS011;317;48.758;9.302;2022-11-14T02:28:44;19.13;;;17.23;;
669;SDS011;317;48.758;9.302;2022-11-14T02:31:11;22.63;;;17.93;;
669;SDS011;317;48.758;9.302;2022-11-14T02:33:38;21.00;;;18.30;;
669;SDS011;317;48.758;9.302;2022-11-14T02:36:05;31.47;;;20.70;;
669;SDS011;317;48.758;9.302;2022-11-14T02:38:33;39.87;;;20.43;;
669;SDS011;317;48.758;9.302;2022-11-14T02:41:00;23.67;;;19.07;;
669;SDS011;317;48.758;9.302;2022-11-14T02:43:27;22.90;;;18.20;;
669;SDS011;317;48.758;9.302;2022-11-14T02:45:55;20.97;;;18.07;;
669;SDS011;317;48.758;9.302;2022-11-14T02:48:22;24.07;;;19.70;;
669;SDS011;317;48.758;9.302;2022-11-14T02:50:49;24.10;;;19.87;;
669;SDS011;317;48.758;9.302;2022-11-14T02:53:16;50.03;;;22.70;;
669;SDS011;317;48.758;9.302;2022-11-14T02:55:45;157.50;;;29.83;;
669;SDS011;317;48.758;9.302;2022-11-14T02:58:13;378.73;;;38.13;;
669;SDS011;317;48.758;9.302;2022-11-14T03:00:40;325.63;;;36.80;;
669;SDS011;317;48.758;9.302;2022-11-14T03:03:06;366.20;;;41.33;;
669;SDS011;317;48.758;9.302;2022-11-14T03:05:33;309.53;;;33.07;;
669;SDS011;317;48.758;9.302;2022-11-14T03:08:00;396.13;;;41.00;;
669;SDS011;317;48.758;9.302;2022-11-14T03:10:27;549.97;;;45.80;;
669;SDS011;317;48.758;9.302;2022-11-14T03:12:55;404.30;;;43.50;;
669;SDS011;317;48.758;9.302;2022-11-14T03:15:23;220.47;;;30.07;;
669;SDS011;317;48.758;9.302;2022-11-14T03:17:50;260.57;;;35.07;;
669;SDS011;317;48.758;9.302;2022-11-14T03:20:17;215.00;;;28.90;;
669;SDS011;317;48.758;9.302;2022-11-14T03:22:44;182.40;;;27.93;;
669;SDS011;317;48.758;9.302;2022-11-14T03:25:11;134.53;;;23.90;;
669;SDS011;317;48.758;9.302;2022-11-14T03:27:37;131.47;;;23.43;;
669;SDS011;317;48.758;9.302;2022-11-14T03:30:06;120.43;;;23.80;;
669;SDS011;317;48.758;9.302;2022-11-14T03:32:34;72.07;;;20.50;;
669;SDS011;317;48.758;9.302;2022-11-14T03:35:01;21.20;;;16.70;;
669;SDS011;317;48.758;9.302;2022-11-14T03:37:28;20.70;;;18.03;;
669;SDS011;317;48.758;9.302;2022-11-14T03:39:55;44.40;;;18.30;;
669;SDS011;317;48.758;9.302;2022-11-14T03:42:21;64.63;;;19.80;;
669;SDS011;317;48.758;9.302;2022-11-14T03:44:48;47.53;;;17.33;;
669;SDS011;317;48.758;9.302;2022-11-14T03:47:16;92.30;;;20.63;;
669;SDS011;317;48.758;9.302;2022-11-14T03:49:43;94.03;;;20.73;;
669;SDS011;317;48.758;9.302;2022-11-14T03:52:10;188.73;;;26.07;;
669;SDS011;317;48.758;9.302;2022-11-14T03:54:37;101.67;;;20.73;;
669;SDS011;317;48.758;9.302;2022-11-14T03:57:04;67.07;;;20.27;;
669;SDS011;317;48.758;9.302;2022-11-14T03:59:31;168.33;;;27.00;;
669;SDS011;317;48.758;9.302;2022-11-14T04:01:57;138.63;;;26.17;;
669;SDS011;317;48.758;9.302;2022-11-14T04:04:25;229.03;;;30.60;;
669;SDS011;317;48.758;9.302;2022-11-14T04:06:52;106.77;;;22.87;;
669;SDS011;317;48.758;9.302;2022-11-14T04:09:19;34.37;;;17.83;;
669;SDS011;317;48.758;9.302;2022-11-14T04:11:46;65.77;;;22.13;;
669;SDS011;317;48.758;9.302;2022-11-14T04:14:12;28.83;;;18.10;;
669;SDS011;317;48.758;9.302;2022-11-14T04:16:39;66.57;;;20.53;;
669;SDS011;317;48.758;9.302;2022-11-14T04:19:06;70.37;;;19.90;;
669;SDS011;317;48.758;9.302;2022-11-14T04:21:34;137.67;;;24.90;;
669;SDS011;317;48.758;9.302;2022-11-14T04:24:01;153.47;;;24.43;;
669;SDS011;317;48.758;9.302;2022-11-14T04:26:28;165.57;;;26.30;;
669;SDS011;317;48.758;9.302;2022-11-14T04:28:55;191.13;;;28.50;;
669;SDS011;317;48.758;9.302;2022-11-14T04:31:21;185.10;;;26.40;;
669;SDS011;317;48.758;9.302;2022-11-14T04:33:48;232.60;;;36.50;;
669;SDS011;317;48.758;9.302;2022-11-14T04:36:15;176.73;;;26.80;;
669;SDS011;317;48.758;9.302;2022-11-14T04:38:44;149.90;;;23.17;;
669;SDS011;317;48.758;9.302;2022-11-14T04:41:10;189.40;;;27.70;;
669;SDS011;317;48.758;9.302;2022-11-14T04:43:37;184.87;;;26.40;;
669;SDS011;317;48.758;9.302;2022-11-14T04:46:04;235.83;;;29.37;;
669;SDS011;317;48.758;9.302;2022-11-14T04:48:31;225.53;;;31.77;;
669;SDS011;317;48.758;9.302;2022-11-14T04:50:58;179.57;;;27.10;;
669;SDS011;317;48.758;9.302;2022-11-14T04:53:25;258.27;;;33.07;;
669;SDS011;317;48.758;9.302;2022-11-14T04:55:53;136.73;;;26.47;;
669;SDS011;317;48.758;9.302;2022-11-14T04:58:20;104.93;;;23.20;;
669;SDS011;317;48.758;9.302;2022-11-14T05:00:47;208.37;;;26.63;;
669;SDS011;317;48.758;9.302;2022-11-14T05:03:15;165.07;;;24.77;;
669;SDS011;317;48.758;9.302;2022-11-14T05:05:42;120.93;;;24.63;;
669;SDS011;317;48.758;9.302;2022-11-14T05:08:09;99.73;;;22.30;;
669;SDS011;317;48.758;9.302;2022-11-14T05:10:36;94.33;;;24.47;;
669;SDS011;317;48.758;9.302;2022-11-14T05:13:04;246.67;;;28.60;;
669;SDS011;317;48.758;9.302;2022-11-14T05:15:30;139.50;;;24.07;;
669;SDS011;317;48.758;9.302;2022-11-14T05:17:58;151.10;;;25.63;;
669;SDS011;317;48.758;9.302;2022-11-14T05:20:24;191.13;;;28.17;;
669;SDS011;317;48.758;9.302;2022-11-14T05:22:52;114.63;;;23.47;;
669;SDS011;317;48.758;9.302;2022-11-14T05:25:19;93.80;;;21.63;;
669;SDS011;317;48.758;9.302;2022-11-14T05:27:46;77.80;;;20.23;;
669;SDS011;317;48.758;9.302;2022-11-14T05:30:15;117.70;;;24.13;;
669;SDS011;317;48.758;9.302;2022-11-14T05:32:42;115.83;;;24.20;;
669;SDS011;317;48.758;9.302;2022-11-14T05:35:09;172.90;;;30.27;;
669;SDS011;317;48.758;9.302;2022-11-14T05:37:36;109.23;;;23.07;;
669;SDS011;317;48.758;9.302;2022-11-14T05:40:04;77.73;;;21.40;;
669;SDS011;317;48.758;9.302;2022-11-14T05:42:31;68.10;;;20.53;;
669;SDS011;317;48.758;9.302;2022-11-14T05:44:58;50.87;;;18.63;;
669;SDS011;317;48.758;9.302;2022-11-14T05:47:26;39.30;;;18.23;;
669;SDS011;317;48.758;9.302;2022-11-14T05:49:52;24.00;;;16.30;;
669;SDS011;317;48.758;9.302;2022-11-14T05:52:19;22.40;;;17.23;;
669;SDS011;317;48.758;9.302;2022-11-14T05:54:46;37.87;;;18.67;;
669;SDS011;317;48.758;9.302;2022-11-14T05:57:14;31.43;;;17.70;;
669;SDS011;317;48.758;9.302;2022-11-14T05:59:41;23.87;;;17.43;;
669;SDS011;317;48.758;9.302;2022-11-14T06:02:07;22.87;;;17.10;;
669;SDS011;317;48.758;9.302;2022-11-14T06:04:35;18.47;;;16.33;;
669;SDS011;317;48.758;9.302;2022-11-14T06:07:02;16.57;;;14.90;;
669;SDS011;317;48.758;9.302;2022-11-14T06:09:29;19.90;;;18.10;;
669;SDS011;317;48.758;9.302;2022-11-14T06:11:56;20.00;;;18.20;;
669;SDS011;317;48.758;9.302;2022-11-14T06:14:23;16.87;;;15.17;;
669;SDS011;317;48.758;9.302;2022-11-14T06:16:50;14.67;;;13.33;;
669;SDS011;317;48.758;9.302;2022-11-14T06:19:17;15.70;;;14.30;;
669;SDS011;317;48.758;9.302;2022-11-14T06:21:49;17.40;;;15.80;;
669;SDS011;317;48.758;9.302;2022-11-14T06:24:16;16.70;;;15.10;;
669;SDS011;317;48.758;9.302;2022-11-14T06:26:42;17.80;;;16.30;;
669;SDS011;317;48.758;9.302;2022-11-14T06:29:09;19.00;;;17.40;;
669;SDS011;317;48.758;9.302;2022-11-14T06:31:36;23.30;;;21.30;;
669;SDS011;317;48.758;9.302;2022-11-14T06:34:03;15.73;;;14.43;;
669;SDS011;317;48.758;9.302;2022-11-14T06:36:30;15.87;;;14.47;;
669;SDS011;317;48.758;9.302;2022-11-14T06:38:58;15.90;;;14.50;;
669;SDS011;317;48.758;9.302;2022-11-14T06:41:25;16.27;;;14.77;;
669;SDS011;317;48.758;9.302;2022-11-14T06:43:52;20.17;;;18.27;;
669;SDS011;317;48.758;9.302;2022-11-14T06:46:19;17.00;;;15.33;;
669;SDS011;317;48.758;9.302;2022-11-14T06:48:48;18.57;;;16.70;;
669;SDS011;317;48.758;9.302;2022-11-14T06:51:16;16.70;;;15.10;;
669;SDS011;317;48.758;9.302;2022-11-14T06:53:43;20.57;;;18.87;;
669;SDS011;317;48.758;9.302;2022-11-14T06:56:13;18.83;;;17.20;;
669;SDS011;317;48.758;9.302;2022-11-14T06:58:41;17.90;;;16.50;;
669;SDS011;317;48.758;9.302;2022-11-14T07:01:10;16.60;;;15.20;;
669;SDS011;317;48.758;9.302;2022-11-14T07:03:38;19.07;;;17.27;;
669;SDS011;317;48.758;9.302;2022-11-14T07:06:06;21.47;;;19.57;;
669;SDS011;317;48.758;9.302;2022-11-14T07:08:35;16.93;;;15.37;;
669;SDS011;317;48.758;9.302;2022-11-14T07:11:03;20.60;;;15.83;;
669;SDS011;317;48.758;9.302;2022-11-14T07:13:32;16.27;;;14.80;;
669;SDS011;317;48.758;9.302;2022-11-14T07:16:00;16.47;;;14.97;;
669;SDS011;317;48.758;9.302;2022-11-14T07:18:28;16.03;;;14.60;;
669;SDS011;317;48.758;9.302;2022-11-14T07:20:57;17.03;;;15.50;;
669;SDS011;317;48.758;9.302;2022-11-14T07:23:25;16.43;;;14.90;;
669;SDS011;317;48.758;9.302;2022-11-14T07:25:52;17.37;;;15.80;;
669;SDS011;317;48.758;9.302;2022-11-14T07:28:18;16.30;;;14.70;;
669;SDS011;317;48.758;9.302;2022-11-14T07:30:47;17.93;;;16.10;;
669;SDS011;317;48.758;9.302;2022-11-14T07:33:14;19.40;;;17.43;;
669;SDS011;317;48.758;9.302;2022-11-14T07:35:41;47.47;;;42.57;;
669;SDS011;317;48.758;9.302;2022-11-14T07:38:08;20.10;;;17.50;;
669;SDS011;317;48.758;9.302;2022-11-14T07:40:35;19.50;;;17.60;;
669;SDS011;317;48.758;9.302;2022-11-14T07:43:02;19.60;;;17.90;;
669;SDS011;317;48.758;9.302;2022-11-14T07:45:28;17.67;;;16.17;;
669;SDS011;317;48.758;9.302;2022-11-14T07:47:59;18.33;;;16.60;;
669;SDS011;317;48.758;9.302;2022-11-14T07:50:27;20.50;;;18.70;;
669;SDS011;317;48.758;9.302;2022-11-14T07:52:55;26.63;;;24.03;;
669;SDS011;317;48.758;9.302;2022-11-14T07:55:23;23.20;;;21.13;;
669;SDS011;317;48.758;9.302;2022-11-14T07:57:51;21.53;;;19.73;;
669;SDS011;317;48.758;9.302;2022-11-14T08:00:18;20.63;;;18.63;;
669;SDS011;317;48.758;9.302;2022-11-14T08:02:46;18.70;;;17.07;;
669;SDS011;317;48.758;9.302;2022-11-14T08:05:14;20.17;;;17.97;;
669;SDS011;317;48.758;9.302;2022-11-14T08:07:42;23.17;;;20.97;;
669;SDS011;317;48.758;9.302;2022-11-14T08:10:08;18.13;;;16.63;;
669;SDS011;317;48.758;9.302;2022-11-14T08:12:37;18.20;;;16.50;;
669;SDS011;317;48.758;9.302;2022-11-14T08:15:05;18.60;;;16.43;;
669;SDS011;317;48.758;9.302;2022-11-14T08:17:33;17.97;;;16.27;;
669;SDS011;317;48.758;9.302;2022-11-14T08:20:01;18.80;;;16.90;;
669;SDS011;317;48.758;9.302;2022-11-14T08:22:29;19.97;;;17.60;;
669;SDS011;317;48.758;9.302;2022-11-14T08:24:56;20.00;;;18.03;;
669;SDS011;317;48.758;9.302;2022-11-14T08:27:23;21.30;;;19.30;;
669;SDS011;317;48.758;9.302;2022-11-14T08:29:51;21.13;;;19.07;;
669;SDS011;317;48.758;9.302;2022-11-14T08:32:18;24.63;;;22.07;;
669;SDS011;317;48.758;9.302;2022-11-14T08:34:46;37.40;;;31.57;;
669;SDS011;317;48.758;9.302;2022-11-14T08:37:13;35.53;;;28.73;;
669;SDS011;317;48.758;9.302;2022-11-14T08:39:42;33.87;;;28.27;;
669;SDS011;317;48.758;9.302;2022-11-14T08:42:09;32.20;;;25.07;;
669;SDS011;317;48.758;9.302;2022-11-14T08:44:35;23.53;;;21.13;;
669;SDS011;317;48.758;9.302;2022-11-14T08:47:02;27.97;;;25.30;;
669;SDS011;317;48.758;9.302;2022-11-14T08:49:29;22.93;;;19.83;;
669;SDS011;317;48.758;9.302;2022-11-14T08:51:56;22.37;;;19.87;;
669;SDS011;317;48.758;9.302;2022-11-14T08:54:24;21.07;;;19.07;;
669;SDS011;317;48.758;9.302;2022-11-14T08:56:52;21.43;;;18.90;;
669;SDS011;317;48.758;9.302;2022-11-14T08:59:19;20.90;;;18.80;;
669;SDS011;317;48.758;9.302;2022-11-14T09:01:46;24.80;;;22.30;;
669;SDS011;317;48.758;9.302;2022-11-14T09:04:13;23.83;;;21.60;;
669;SDS011;317;48.758;9.302;2022-11-14T09:06:40;29.20;;;26.40;;
669;SDS011;317;48.758;9.302;2022-11-14T09:09:07;24.67;;;22.23;;
669;SDS011;317;48.758;9.302;2022-11-14T09:11:34;24.33;;;22.03;;
669;SDS011;317;48.758;9.302;2022-11-14T09:14:02;28.03;;;22.90;;
669;SDS011;317;48.758;9.302;2022-11-14T09:16:29;24.40;;;21.87;;
669;SDS011;317;48.758;9.302;2022-11-14T09:18:57;25.00;;;22.60;;
669;SDS011;317;48.758;9.302;2022-11-14T09:21:25;26.27;;;23.80;;
669;SDS011;317;48.758;9.302;2022-11-14T09:23:52;25.17;;;22.67;;
669;SDS011;317;48.758;9.302;2022-11-14T09:26:18;24.67;;;22.30;;
669;SDS011;317;48.758;9.302;2022-11-14T09:28:45;23.23;;;21.03;;
669;SDS011;317;48.758;9.302;2022-11-14T09:31:13;23.33;;;20.97;;
669;SDS011;317;48.758;9.302;2022-11-14T09:33:40;23.60;;;21.30;;
669;SDS011;317;48.758;9.302;2022-11-14T09:36:09;25.53;;;23.17;;
669;SDS011;317;48.758;9.302;2022-11-14T09:38:40;26.47;;;24.00;;
669;SDS011;317;48.758;9.302;2022-11-14T09:41:15;30.13;;;27.20;;
669;SDS011;317;48.758;9.302;2022-11-14T09:44:08;21.67;;;19.77;;
669;SDS011;317;48.758;9.302;2022-11-14T09:46:58;26.43;;;23.93;;
669;SDS011;317;48.758;9.302;2022-11-14T09:49:30;23.37;;;21.27;;
669;SDS011;317;48.758;9.302;2022-11-14T09:52:04;18.60;;;17.00;;
669;SDS011;317;48.758;9.302;2022-11-14T09:54:43;17.50;;;15.83;;
669;SDS011;317;48.758;9.302;2022-11-14T09:57:15;18.90;;;17.30;;
669;SDS011;317;48.758;9.302;2022-11-14T09:59:43;16.87;;;15.50;;
669;SDS011;317;48.758;9.302;2022-11-14T10:02:15;18.90;;;17.10;;
669;SDS011;317;48.758;9.302;2022-11-14T10:04:49;17.97;;;16.37;;
669;SDS011;317;48.758;9.302;2022-11-14T10:07:26;15.40;;;14.13;;
669;SDS011;317;48.758;9.302;2022-11-14T10:10:02;15.20;;;13.80;;
669;SDS011;317;48.758;9.302;2022-11-14T10:12:36;15.07;;;13.80;;
669;SDS011;317;48.758;9.302;2022-11-14T10:15:12;10.90;;;10.00;;
669;SDS011;317;48.758;9.302;2022-11-14T10:17:48;13.03;;;11.93;;
669;SDS011;317;48.758;9.302;2022-11-14T10:20:33;10.17;;;9.27;;
669;SDS011;317;48.758;9.302;2022-11-14T10:23:14;11.73;;;10.63;;
669;SDS011;317;48.758;9.302;2022-11-14T10:25:55;12.83;;;11.63;;
669;SDS011;317;48.758;9.302;2022-11-14T10:28:38;13.73;;;12.57;;
669;SDS011;317;48.758;9.302;2022-11-14T10:31:15;14.83;;;13.63;;
669;SDS011;317;48.758;9.302;2022-11-14T10:33:55;14.43;;;13.33;;
669;SDS011;317;48.758;9.302;2022-11-14T10:36:31;15.70;;;14.40;;
669;SDS011;317;48.758;9.302;2022-11-14T10:39:10;16.00;;;14.50;;
669;SDS011;317;48.758;9.302;2022-11-14T10:41:42;17.47;;;15.87;;
669;SDS011;317;48.758;9.302;2022-11-14T10:44:12;16.30;;;14.87;;
669;SDS011;317;48.758;9.302;2022-11-14T10:46:44;21.57;;;15.30;;
669;SDS011;317;48.758;9.302;2022-11-14T10:49:17;16.70;;;13.17;;
669;SDS011;317;48.758;9.302;2022-11-14T10:51:46;19.30;;;12.30;;
669;SDS011;317;48.758;9.302;2022-11-14T10:54:19;11.50;;;10.40;;
669;SDS011;317;48.758;9.302;2022-11-14T10:56:51;12.80;;;9.30;;
669;SDS011;317;48.758;9.302;2022-11-14T10:59:20;9.40;;;8.60;;
669;SDS011;317;48.758;9.302;2022-11-14T11:01:52;9.00;;;8.27;;
669;SDS011;317;48.758;9.302;2022-11-14T11:04:23;9.23;;;8.43;;
669;SDS011;317;48.758;9.302;2022-11-14T11:06:53;10.73;;;9.73;;
669;SDS011;317;48.758;9.302;2022-11-14T11:09:22;10.67;;;9.37;;
669;SDS011;317;48.758;9.302;2022-11-14T11:12:08;9.30;;;8.60;;
669;SDS011;317;48.758;9.302;2022-11-14T11:14:41;8.67;;;7.87;;
669;SDS011;317;48.758;9.302;2022-11-14T11:17:16;6.83;;;6.33;;
669;SDS011;317;48.758;9.302;2022-11-14T11:19:48;8.00;;;7.20;;
669;SDS011;317;48.758;9.302;2022-11-14T11:22:26;8.07;;;7.37;;
669;SDS011;317;48.758;9.302;2022-11-14T11:24:55;6.63;;;6.03;;
669;SDS011;317;48.758;9.302;2022-11-14T11:27:22;6.77;;;6.17;;
669;SDS011;317;48.758;9.302;2022-11-14T11:30:00;5.90;;;5.40;;
669;SDS011;317;48.758;9.302;2022-11-14T11:32:29;5.90;;;5.40;;
669;SDS011;317;48.758;9.302;2022-11-14T11:34:59;6.40;;;5.80;;
669;SDS011;317;48.758;9.302;2022-11-14T11:37:29;9.43;;;6.00;;
669;SDS011;317;48.758;9.302;2022-11-14T11:40:00;4.70;;;4.30;;
669;SDS011;317;48.758;9.302;2022-11-14T11:42:30;5.03;;;4.57;;
669;SDS011;317;48.758;9.302;2022-11-14T11:45:04;5.00;;;4.60;;
669;SDS011;317;48.758;9.302;2022-11-14T11:47:39;6.13;;;5.37;;
669;SDS011;317;48.758;9.302;2022-11-14T11:50:13;5.57;;;5.17;;
669;SDS011;317;48.758;9.302;2022-11-14T11:52:44;4.73;;;4.23;;
669;SDS011;317;48.758;9.302;2022-11-14T11:55:23;4.63;;;4.23;;
669;SDS011;317;48.758;9.302;2022-11-14T11:57:54;6.40;;;5.70;;
669;SDS011;317;48.758;9.302;2022-11-14T12:00:27;5.47;;;4.97;;
669;SDS011;317;48.758;9.302;2022-11-14T12:02:56;5.43;;;4.47;;
669;SDS011;317;48.758;9.302;2022-11-14T12:05:27;5.00;;;4.57;;
669;SDS011;317;48.758;9.302;2022-11-14T12:08:00;4.50;;;4.10;;
669;SDS011;317;48.758;9.302;2022-11-14T12:10:31;5.57;;;4.97;;
669;SDS011;317;48.758;9.302;2022-11-14T12:16:10;5.50;;;5.00;;
669;SDS011;317;48.758;9.302;2022-11-14T12:18:50;5.50;;;5.03;;
669;SDS011;317;48.758;9.302;2022-11-14T12:21:33;6.00;;;4.87;;
669;SDS011;317;48.758;9.302;2022-11-14T12:27:24;5.70;;;5.20;;
669;SDS011;317;48.758;9.302;2022-11-14T12:30:10;5.53;;;3.77;;
669;SDS011;317;48.758;9.302;2022-11-14T12:32:42;4.63;;;4.23;;
669;SDS011;317;48.758;9.302;2022-11-14T12:35:14;4.20;;;3.80;;
669;SDS011;317;48.758;9.302;2022-11-14T12:37:47;4.50;;;4.10;;
669;SDS011;317;48.758;9.302;2022-11-14T12:43:01;4.10;;;3.73;;
669;SDS011;317;48.758;9.302;2022-11-14T12:48:33;2.17;;;1.97;;
669;SDS011;317;48.758;9.302;2022-11-14T12:51:03;2.47;;;2.27;;
669;SDS011;317;48.758;9.302;2022-11-14T12:53:39;2.60;;;2.30;;
669;SDS011;317;48.758;9.302;2022-11-14T12:56:12;4.27;;;2.20;;
669;SDS011;317;48.758;9.302;2022-11-14T12:59:16;2.77;;;2.20;;
669;SDS011;317;48.758;9.302;2022-11-14T13:01:54;2.37;;;2.27;;
669;SDS011;317;48.758;9.302;2022-11-14T13:04:37;2.17;;;2.00;;
669;SDS011;317;48.758;9.302;2022-11-14T13:07:18;2.80;;;2.60;;
669;SDS011;317;48.758;9.302;2022-11-14T13:10:00;3.00;;;2.00;;
669;SDS011;317;48.758;9.302;2022-11-14T13:12:38;7.80;;;3.90;;
669;SDS011;317;48.758;9.302;2022-11-14T13:15:25;2.63;;;2.43;;
669;SDS011;317;48.758;9.302;2022-11-14T13:18:13;2.93;;;2.63;;
669;SDS011;317;48.758;9.302;2022-11-14T13:21:03;3.37;;;2.60;;
669;SDS011;317;48.758;9.302;2022-11-14T13:23:53;1.70;;;1.60;;
669;SDS011;317;48.758;9.302;2022-11-14T13:26:40;3.03;;;2.50;;
669;SDS011;317;48.758;9.302;2022-11-14T13:35:38;2.30;;;1.97;;
669;SDS011;317;48.758;9.302;2022-11-14T13:38:22;1.80;;;1.70;;
669;SDS011;317;48.758;9.302;2022-11-14T13:41:19;3.70;;;2.10;;
669;SDS011;317;48.758;9.302;2022-11-14T13:44:03;2.53;;;1.93;;
669;SDS011;317;48.758;9.302;2022-11-14T13:46:48;2.03;;;1.57;;
669;SDS011;317;48.758;9.302;2022-11-14T13:49:36;1.80;;;1.70;;
669;SDS011;317;48.758;9.302;2022-11-14T13:52:16;2.10;;;1.90;;
669;SDS011;317;48.758;9.302;2022-11-14T13:54:44;2.07;;;1.87;;
669;SDS011;317;48.758;9.302;2022-11-14T13:57:14;2.80;;;1.47;;
669;SDS011;317;48.758;9.302;2022-11-14T13:59:54;1.90;;;1.80;;
669;SDS011;317;48.758;9.302;2022-11-14T14:02:43;1.83;;;1.60;;
669;SDS011;317;48.758;9.302;2022-11-14T14:05:30;2.97;;;2.30;;
669;SDS011;317;48.758;9.302;2022-11-14T14:08:19;2.43;;;2.20;;
669;SDS011;317;48.758;9.302;2022-11-14T14:10:56;2.57;;;2.37;;
669;SDS011;317;48.758;9.302;2022-11-14T14:13:33;3.40;;;2.90;;
669;SDS011;317;48.758;9.302;2022-11-14T14:16:11;3.70;;;2.43;;
669;SDS011;317;48.758;9.302;2022-11-14T14:18:49;3.63;;;3.33;;
669;SDS011;317;48.758;9.302;2022-11-14T14:21:26;3.43;;;2.47;;
669;SDS011;317;48.758;9.302;2022-11-14T14:24:02;3.60;;;2.40;;
669;SDS011;317;48.758;9.302;2022-11-14T14:26:38;2.10;;;1.90;;
669;SDS011;317;48.758;9.302;2022-11-14T14:29:21;2.50;;;2.27;;
669;SDS011;317;48.758;9.302;2022-11-14T14:31:53;1.90;;;1.80;;
669;SDS011;317;48.758;9.302;2022-11-14T14:34:35;1.73;;;1.50;;
669;SDS011;317;48.758;9.302;2022-11-14T14:37:12;3.90;;;2.40;;
669;SDS011;317;48.758;9.302;2022-11-14T14:39:42;4.10;;;2.23;;
669;SDS011;317;48.758;9.302;2022-11-14T14:42:21;6.93;;;3.10;;
669;SDS011;317;48.758;9.302;2022-11-14T14:44:48;3.30;;;3.10;;
669;SDS011;317;48.758;9.302;2022-11-14T14:47:30;5.43;;;2.63;;
669;SDS011;317;48.758;9.302;2022-11-14T14:50:02;3.40;;;2.40;;
669;SDS011;317;48.758;9.302;2022-11-14T14:52:32;4.20;;;2.97;;
669;SDS011;317;48.758;9.302;2022-11-14T14:55:01;7.10;;;3.00;;
669;SDS011;317;48.758;9.302;2022-11-14T14:57:30;3.37;;;2.30;;
669;SDS011;317;48.758;9.302;2022-11-14T14:59:58;2.97;;;2.47;;
669;SDS011;317;48.758;9.302;2022-11-14T15:02:26;3.37;;;2.20;;
669;SDS011;317;48.758;9.302;2022-11-14T15:04:55;2.60;;;2.40;;
669;SDS011;317;48.758;9.302;2022-11-14T15:07:25;4.30;;;3.90;;
669;SDS011;317;48.758;9.302;2022-11-14T15:09:54;3.53;;;2.70;;
669;SDS011;317;48.758;9.302;2022-11-14T15:12:24;3.13;;;2.63;;
669;SDS011;317;48.758;9.302;2022-11-14T15:14:54;3.67;;;2.43;;
669;SDS011;317;48.758;9.302;2022-11-14T15:17:22;7.43;;;2.70;;
669;SDS011;317;48.758;9.302;2022-11-14T15:19:50;4.27;;;2.43;;
669;SDS011;317;48.758;9.302;2022-11-14T15:22:23;3.60;;;2.83;;
669;SDS011;317;48.758;9.302;2022-11-14T15:25:14;4.53;;;2.20;;
669;SDS011;317;48.758;9.302;2022-11-14T15:27:44;3.10;;;2.40;;
669;SDS011;317;48.758;9.302;2022-11-14T15:30:19;5.00;;;3.00;;
669;SDS011;317;48.758;9.302;2022-11-14T15:32:49;3.07;;;2.77;;
669;SDS011;317;48.758;9.302;2022-11-14T15:35:24;4.57;;;3.23;;
669;SDS011;317;48.758;9.302;2022-11-14T15:38:01;3.63;;;3.27;;
669;SDS011;317;48.758;9.302;2022-11-14T15:40:30;3.67;;;2.93;;
669;SDS011;317;48.758;9.302;2022-11-14T15:42:58;3.33;;;3.03;;
669;SDS011;317;48.758;9.302;2022-11-14T15:45:26;4.70;;;3.40;;
669;SDS011;317;48.758;9.302;2022-11-14T15:47:57;3.43;;;3.23;;
669;SDS011;317;48.758;9.302;2022-11-14T15:50:28;4.70;;;3.73;;
669;SDS011;317;48.758;9.302;2022-11-14T15:52:57;3.80;;;3.50;;
669;SDS011;317;48.758;9.302;2022-11-14T15:55:27;4.97;;;3.10;;
669;SDS011;317;48.758;9.302;2022-11-14T15:57:53;5.50;;;3.70;;
669;SDS011;317;48.758;9.302;2022-11-14T16:00:20;4.37;;;3.67;;